createdAt,value
2023-05-07T00:00:14.418Z,100039.03
2023-05-07T00:00:45.842Z,100043.63
2023-05-07T00:01:18.231Z,100044.59
2023-05-07T00:01:50.862Z,100052.56
2023-05-07T00:02:22.237Z,100041.94
2023-05-07T00:02:53.757Z,100054.41
2023-05-07T00:03:25.329Z,100043.88
2023-05-07T00:03:57.013Z,100055.34
2023-05-07T00:04:28.507Z,100041.09
2023-05-07T00:05:00.167Z,100046.28
2023-05-07T00:05:31.595Z,100047.00
2023-05-07T00:06:02.872Z,100052.31
2023-05-07T00:06:34.150Z,100046.03
2023-05-07T00:07:05.694Z,100056.81
2023-05-07T00:07:37.002Z,100053.56
2023-05-07T00:08:08.452Z,100051.75
2023-05-07T00:08:39.812Z,100051.75
2023-05-07T00:09:11.091Z,100056.47
2023-05-07T00:09:42.359Z,100052.25
2023-05-07T00:10:13.907Z,100055.78
2023-05-07T00:10:45.466Z,100057.69
2023-05-07T00:11:16.731Z,100049.00
2023-05-07T00:11:47.994Z,100051.06
2023-05-07T00:12:19.251Z,100048.28
2023-05-07T00:12:50.539Z,100049.25
2023-05-07T00:13:21.907Z,100052.91
2023-05-07T00:13:53.298Z,100055.56
2023-05-07T00:14:24.558Z,100052.91
2023-05-07T00:14:55.829Z,100055.56
2023-05-07T00:15:27.087Z,100052.91
2023-05-07T00:15:58.387Z,100052.16
2023-05-07T00:16:29.741Z,100050.75
2023-05-07T00:17:01.050Z,100049.75
2023-05-07T00:17:33.355Z,100050.94
2023-05-07T00:18:04.748Z,100054.56
2023-05-07T00:18:36.096Z,100049.00
2023-05-07T00:19:07.383Z,100053.09
2023-05-07T00:19:38.650Z,100054.06
2023-05-07T00:20:10.296Z,100055.63
2023-05-07T00:20:41.767Z,100054.78
2023-05-07T00:21:13.052Z,100053.09
2023-05-07T00:21:44.351Z,100053.81
2023-05-07T00:22:16.106Z,100054.78
2023-05-07T00:22:47.459Z,100050.31
2023-05-07T00:23:18.740Z,100056.72
2023-05-07T00:23:49.995Z,100051.28
2023-05-07T00:24:21.338Z,100053.09
2023-05-07T00:24:52.618Z,100061.66
2023-05-07T00:25:23.894Z,100052.84
2023-05-07T00:25:55.193Z,100057.19
2023-05-07T00:26:26.480Z,100061.28
2023-05-07T00:26:57.757Z,100055.22
2023-05-07T00:27:29.049Z,100054.53
2023-05-07T00:28:00.322Z,100059.84
2023-05-07T00:28:31.664Z,100057.06
2023-05-07T00:29:02.961Z,100057.19
2023-05-07T00:29:34.274Z,100057.88
2023-05-07T00:30:05.839Z,100055.34
2023-05-07T00:30:37.106Z,100052.69
2023-05-07T00:31:08.372Z,100054.66
2023-05-07T00:31:39.663Z,100054.53
2023-05-07T00:32:11.004Z,100054.53
2023-05-07T00:32:42.406Z,100058.19
2023-05-07T00:33:13.691Z,100054.53
2023-05-07T00:33:44.952Z,100059.84
2023-05-07T00:34:16.250Z,100059.84
2023-05-07T00:34:47.540Z,100062.38
2023-05-07T00:35:18.803Z,100056.22
2023-05-07T00:35:50.137Z,100051.16
2023-05-07T00:36:21.426Z,100057.31
2023-05-07T00:36:52.712Z,100058.00
2023-05-07T00:37:24.169Z,100057.31
2023-05-07T00:37:55.454Z,100056.34
2023-05-07T00:38:26.756Z,100058.88
2023-05-07T00:38:58.155Z,100059.72
2023-05-07T00:39:29.444Z,100056.22
2023-05-07T00:40:00.694Z,100053.81
2023-05-07T00:40:31.963Z,100051.16
2023-05-07T00:41:03.244Z,100052.97
2023-05-07T00:41:34.496Z,100050.03
2023-05-07T00:42:05.789Z,100049.19
2023-05-07T00:42:37.046Z,100051.16
2023-05-07T00:43:08.371Z,100050.19
2023-05-07T00:43:39.667Z,100047.25
2023-05-07T00:44:10.959Z,100057.88
2023-05-07T00:44:42.278Z,100057.88
2023-05-07T00:45:14.235Z,100061.53
2023-05-07T00:45:45.561Z,100053.56
2023-05-07T00:46:16.944Z,100059.13
2023-05-07T00:46:48.381Z,100053.69
2023-05-07T00:47:19.672Z,100059.13
2023-05-07T00:47:50.994Z,100054.66
2023-05-07T00:48:22.360Z,100050.31
2023-05-07T00:48:53.648Z,100052.13
2023-05-07T00:49:29.371Z,100055.63
2023-05-07T00:50:00.654Z,100059.00
2023-05-07T00:50:32.338Z,100052.00
2023-05-07T00:51:03.707Z,100053.69
2023-05-07T00:51:35.034Z,100047.53
2023-05-07T00:52:10.146Z,100051.16
2023-05-07T00:52:41.444Z,100051.28
2023-05-07T00:53:12.783Z,100044.13
2023-05-07T00:53:44.121Z,100054.66
2023-05-07T00:54:15.449Z,100051.88
2023-05-07T00:54:46.786Z,100051.28
2023-05-07T00:55:18.136Z,100051.16
2023-05-07T00:55:49.418Z,100048.63
2023-05-07T00:56:23.221Z,100050.44
2023-05-07T00:56:54.852Z,100044.13
2023-05-07T00:57:26.144Z,100044.13
2023-05-07T00:57:57.446Z,100047.78
2023-05-07T00:58:28.803Z,100048.50
2023-05-07T00:59:00.260Z,100050.31
2023-05-07T00:59:32.443Z,100050.31
2023-05-07T01:00:07.361Z,100051.16
2023-05-07T01:00:38.846Z,100052.13
2023-05-07T01:01:10.424Z,100053.81
2023-05-07T01:01:41.860Z,100045.84
2023-05-07T01:02:13.173Z,100053.81
2023-05-07T01:02:44.502Z,100042.22
2023-05-07T01:03:16.292Z,100049.19
2023-05-07T01:03:48.073Z,100051.88
2023-05-07T01:04:19.822Z,100043.06
2023-05-07T01:04:51.390Z,100051.88
2023-05-07T01:05:23.352Z,100044.72
2023-05-07T01:05:54.682Z,100036.91
2023-05-07T01:06:26.655Z,100040.41
2023-05-07T01:06:58.538Z,100045.84
2023-05-07T01:07:30.704Z,100051.03
2023-05-07T01:08:02.217Z,100042.22
2023-05-07T01:08:33.506Z,100046.78
2023-05-07T01:09:04.820Z,100046.09
2023-05-07T01:09:36.197Z,100049.47
2023-05-07T01:10:07.717Z,100041.22
2023-05-07T01:10:39.023Z,100040.53
2023-05-07T01:11:10.347Z,100035.91
2023-05-07T01:11:41.676Z,100039.41
2023-05-07T01:12:12.955Z,100033.25
2023-05-07T01:12:44.230Z,100033.25
2023-05-07T01:13:15.589Z,100037.03
2023-05-07T01:13:47.441Z,100035.06
2023-05-07T01:14:18.784Z,100033.25
2023-05-07T01:14:50.076Z,100041.34
2023-05-07T01:15:21.390Z,100039.94
2023-05-07T01:15:52.670Z,100030.97
2023-05-07T01:16:23.979Z,100036.28
2023-05-07T01:16:55.328Z,100035.19
2023-05-07T01:17:26.701Z,100033.50
2023-05-07T01:17:58.095Z,100032.53
2023-05-07T01:18:31.982Z,100035.44
2023-05-07T01:19:03.248Z,100033.50
2023-05-07T01:19:34.624Z,100026.50
2023-05-07T01:20:06.360Z,100029.19
2023-05-07T01:20:37.660Z,100028.19
2023-05-07T01:21:08.965Z,100030.59
2023-05-07T01:21:40.224Z,100029.06
2023-05-07T01:22:11.891Z,100033.38
2023-05-07T01:22:43.245Z,100032.41
2023-05-07T01:23:14.491Z,100028.06
2023-05-07T01:23:46.007Z,100028.06
2023-05-07T01:24:17.307Z,100030.72
2023-05-07T01:24:48.644Z,100034.38
2023-05-07T01:25:20.009Z,100023.72
2023-05-07T01:25:54.597Z,100033.63
2023-05-07T01:26:25.921Z,100031.84
2023-05-07T01:26:57.192Z,100035.19
2023-05-07T01:27:28.655Z,100033.25
2023-05-07T01:27:59.907Z,100031.59
2023-05-07T01:28:31.166Z,100027.94
2023-05-07T01:29:02.446Z,100027.94
2023-05-07T01:29:33.748Z,100025.53
2023-05-07T01:30:05.668Z,100032.66
2023-05-07T01:30:36.946Z,100031.97
2023-05-07T01:31:08.320Z,100026.78
2023-05-07T01:31:39.807Z,100026.66
2023-05-07T01:32:11.194Z,100026.50
2023-05-07T01:32:48.357Z,100019.25
2023-05-07T01:33:20.346Z,100030.84
2023-05-07T01:33:51.641Z,100029.88
2023-05-07T01:34:22.920Z,100029.06
2023-05-07T01:34:54.213Z,100028.19
2023-05-07T01:35:26.052Z,100028.19
2023-05-07T01:35:57.339Z,100030.84
2023-05-07T01:36:28.853Z,100030.72
2023-05-07T01:37:00.117Z,100027.22
2023-05-07T01:37:31.398Z,100028.19
2023-05-07T01:38:03.080Z,100028.19
2023-05-07T01:38:34.339Z,100026.38
2023-05-07T01:39:05.634Z,100021.91
2023-05-07T01:39:36.893Z,100021.91
2023-05-07T01:40:08.659Z,100022.75
2023-05-07T01:40:40.204Z,100024.56
2023-05-07T01:41:12.134Z,100022.75
2023-05-07T01:41:43.873Z,100024.44
2023-05-07T01:42:15.136Z,100017.41
2023-05-07T01:42:46.385Z,100017.53
2023-05-07T01:43:17.666Z,100016.72
2023-05-07T01:43:49.240Z,100020.22
2023-05-07T01:44:20.524Z,100013.22
2023-05-07T01:44:51.778Z,100021.19
2023-05-07T01:45:23.043Z,100015.00
2023-05-07T01:45:54.391Z,100016.59
2023-05-07T01:46:25.745Z,100017.81
2023-05-07T01:46:57.725Z,100023.97
2023-05-07T01:47:29.053Z,100023.72
2023-05-07T01:48:00.466Z,100018.53
2023-05-07T01:48:31.844Z,100022.16
2023-05-07T01:49:03.196Z,100028.19
2023-05-07T01:49:34.481Z,100022.03
2023-05-07T01:50:08.516Z,100023.00
2023-05-07T01:50:39.852Z,100025.53
2023-05-07T01:51:11.169Z,100025.53
2023-05-07T01:51:42.475Z,100024.69
2023-05-07T01:52:13.774Z,100027.22
2023-05-07T01:52:45.061Z,100021.78
2023-05-07T01:53:16.456Z,100026.09
2023-05-07T01:53:47.756Z,100019.25
2023-05-07T01:54:19.055Z,100030.72
2023-05-07T01:54:50.361Z,100017.53
2023-05-07T01:55:21.659Z,100021.19
2023-05-07T01:55:53.000Z,100022.88
2023-05-07T01:56:24.758Z,100024.81
2023-05-07T01:56:56.832Z,100022.16
2023-05-07T01:57:28.167Z,100025.78
2023-05-07T01:57:59.408Z,100025.53
2023-05-07T01:58:30.973Z,100023.72
2023-05-07T01:59:02.302Z,100019.25
2023-05-07T01:59:33.708Z,100028.19
2023-05-07T02:00:05.279Z,100019.25
2023-05-07T02:00:36.690Z,100022.03
2023-05-07T02:01:08.034Z,100021.91
2023-05-07T02:01:39.359Z,100024.56
2023-05-07T02:02:10.818Z,100023.72
2023-05-07T02:02:42.257Z,100025.41
2023-05-07T02:03:13.741Z,100027.94
2023-05-07T02:03:45.178Z,100032.53
2023-05-07T02:04:16.655Z,100025.53
2023-05-07T02:04:48.109Z,100021.06
2023-05-07T02:05:19.444Z,100028.19
2023-05-07T02:05:50.730Z,100026.50
2023-05-07T02:06:22.113Z,100024.09
2023-05-07T02:06:53.453Z,100026.78
2023-05-07T02:07:24.773Z,100024.94
2023-05-07T02:07:56.064Z,100034.50
2023-05-07T02:08:27.385Z,100028.19
2023-05-07T02:08:58.648Z,100029.06
2023-05-07T02:09:29.908Z,100026.38
2023-05-07T02:10:01.229Z,100027.22
2023-05-07T02:10:32.502Z,100030.72
2023-05-07T02:11:03.834Z,100032.53
2023-05-07T02:11:35.226Z,100031.72
2023-05-07T02:12:06.542Z,100037.03
2023-05-07T02:12:37.860Z,100036.03
2023-05-07T02:13:09.294Z,100030.00
2023-05-07T02:13:40.613Z,100032.66
2023-05-07T02:14:11.908Z,100031.72
2023-05-07T02:14:43.217Z,100035.19
2023-05-07T02:15:14.501Z,100026.50
2023-05-07T02:15:45.801Z,100038.25
2023-05-07T02:16:17.132Z,100033.75
2023-05-07T02:16:48.580Z,100030.25
2023-05-07T02:17:19.947Z,100027.59
2023-05-07T02:18:06.962Z,100040.06
2023-05-07T02:18:38.258Z,100032.78
2023-05-07T02:19:09.551Z,100031.84
2023-05-07T02:19:40.877Z,100030.13
2023-05-07T02:20:12.504Z,100030.00
2023-05-07T02:20:43.986Z,100027.47
2023-05-07T02:21:15.316Z,100027.59
2023-05-07T02:21:46.607Z,100024.81
2023-05-07T02:22:18.007Z,100023.84
2023-05-07T02:22:49.283Z,100024.81
2023-05-07T02:23:20.608Z,100020.47
2023-05-07T02:23:51.952Z,100023.13
2023-05-07T02:24:23.209Z,100017.81
2023-05-07T02:24:54.527Z,100016.00
2023-05-07T02:25:25.817Z,100012.47
2023-05-07T02:25:57.134Z,100015.88
2023-05-07T02:26:28.399Z,100016.72
2023-05-07T02:26:59.653Z,100017.53
2023-05-07T02:27:30.941Z,100016.72
2023-05-07T02:28:02.230Z,100020.09
2023-05-07T02:28:33.513Z,100016.72
2023-05-07T02:29:04.792Z,100020.22
2023-05-07T02:29:36.081Z,100016.72
2023-05-07T02:30:07.646Z,100015.88
2023-05-07T02:30:38.934Z,100017.41
2023-05-07T02:31:10.250Z,100016.72
2023-05-07T02:31:41.569Z,100021.78
2023-05-07T02:32:13.020Z,100025.28
2023-05-07T02:32:44.394Z,100027.94
2023-05-07T02:33:15.767Z,100025.28
2023-05-07T02:33:47.052Z,100021.78
2023-05-07T02:34:18.337Z,100025.41
2023-05-07T02:34:51.141Z,100021.78
2023-05-07T02:35:22.462Z,100023.72
2023-05-07T02:35:53.765Z,100024.56
2023-05-07T02:36:25.066Z,100029.06
2023-05-07T02:36:56.326Z,100026.50
2023-05-07T02:37:27.585Z,100021.19
2023-05-07T02:37:58.876Z,100027.47
2023-05-07T02:38:30.163Z,100022.88
2023-05-07T02:39:01.429Z,100027.22
2023-05-07T02:39:32.728Z,100025.53
2023-05-07T02:40:04.158Z,100018.41
2023-05-07T02:40:35.441Z,100017.53
2023-05-07T02:41:06.715Z,100027.47
2023-05-07T02:41:38.060Z,100021.19
2023-05-07T02:42:09.331Z,100015.88
2023-05-07T02:42:40.619Z,100021.91
2023-05-07T02:43:11.913Z,100014.88
2023-05-07T02:43:43.210Z,100014.06
2023-05-07T02:44:14.479Z,100015.88
2023-05-07T02:44:45.764Z,100019.50
2023-05-07T02:45:17.134Z,100023.00
2023-05-07T02:45:48.466Z,100014.31
2023-05-07T02:46:19.818Z,100016.97
2023-05-07T02:46:51.131Z,100011.78
2023-05-07T02:47:22.455Z,100015.13
2023-05-07T02:47:53.912Z,100016.13
2023-05-07T02:48:25.252Z,100017.81
2023-05-07T02:48:56.545Z,100017.81
2023-05-07T02:49:27.826Z,100017.81
2023-05-07T02:49:59.110Z,100021.44
2023-05-07T02:50:30.438Z,100012.47
2023-05-07T02:51:01.731Z,100015.88
2023-05-07T02:51:33.027Z,100016.13
2023-05-07T02:52:04.298Z,100011.53
2023-05-07T02:52:35.615Z,100013.47
2023-05-07T02:53:06.882Z,100015.25
2023-05-07T02:53:38.146Z,100015.41
2023-05-07T02:54:09.480Z,100015.41
2023-05-07T02:54:40.783Z,100012.72
2023-05-07T02:55:12.136Z,100018.78
2023-05-07T02:55:43.419Z,100016.13
2023-05-07T02:56:14.712Z,100012.59
2023-05-07T02:56:45.972Z,100009.94
2023-05-07T02:57:17.228Z,100015.13
2023-05-07T02:57:48.510Z,100009.94
2023-05-07T02:58:19.795Z,100015.13
2023-05-07T02:58:51.090Z,100010.81
2023-05-07T02:59:22.382Z,100012.59
2023-05-07T02:59:53.665Z,100011.91
2023-05-07T03:00:25.116Z,100015.25
2023-05-07T03:00:56.474Z,100005.50
2023-05-07T03:01:27.932Z,100014.31
2023-05-07T03:01:59.234Z,100011.66
2023-05-07T03:02:30.541Z,100014.44
2023-05-07T03:03:01.905Z,100009.13
2023-05-07T03:03:33.238Z,100007.41
2023-05-07T03:04:04.603Z,100009.13
2023-05-07T03:04:36.072Z,100009.13
2023-05-07T03:05:07.616Z,100009.13
2023-05-07T03:05:38.887Z,100003.78
2023-05-07T03:06:10.206Z,100006.47
2023-05-07T03:06:41.775Z,100006.59
2023-05-07T03:07:13.079Z,100009.13
2023-05-07T03:07:44.365Z,100007.69
2023-05-07T03:08:15.646Z,100000.44
2023-05-07T03:08:46.913Z,100002.97
2023-05-07T03:09:18.332Z,100007.41
2023-05-07T03:09:49.622Z,100001.25
2023-05-07T03:10:20.888Z,100005.75
2023-05-07T03:10:52.172Z,100004.88
2023-05-07T03:11:23.479Z,100006.59
2023-05-07T03:11:54.782Z,100005.63
2023-05-07T03:12:26.073Z,99997.66
2023-05-07T03:12:57.460Z,100002.97
2023-05-07T03:13:28.843Z,100002.97
2023-05-07T03:14:00.184Z,99999.44
2023-05-07T03:14:31.447Z,100005.75
2023-05-07T03:15:02.750Z,100003.94
2023-05-07T03:15:34.081Z,100004.88
2023-05-07T03:16:05.486Z,100005.03
2023-05-07T03:16:36.768Z,100003.34
2023-05-07T03:17:08.003Z,100006.72
2023-05-07T03:17:39.493Z,100005.75
2023-05-07T03:18:10.891Z,100005.75
2023-05-07T03:18:42.248Z,100011.91
2023-05-07T03:19:13.581Z,100013.84
2023-05-07T03:19:44.861Z,100006.00
2023-05-07T03:20:16.379Z,100004.06
2023-05-07T03:20:49.012Z,100003.22
2023-05-07T03:21:20.347Z,100007.69
2023-05-07T03:21:51.834Z,100007.81
2023-05-07T03:22:23.178Z,100009.38
2023-05-07T03:22:54.418Z,100007.69
2023-05-07T03:23:25.719Z,100013.03
2023-05-07T03:23:57.118Z,100006.84
2023-05-07T03:24:28.387Z,100012.03
2023-05-07T03:24:59.666Z,100010.19
2023-05-07T03:25:30.992Z,100009.50
2023-05-07T03:26:02.316Z,100006.84
2023-05-07T03:26:33.641Z,100006.00
2023-05-07T03:27:04.929Z,100010.50
2023-05-07T03:27:36.313Z,100007.69
2023-05-07T03:28:07.629Z,100008.66
2023-05-07T03:28:38.959Z,100006.84
2023-05-07T03:29:10.281Z,100005.88
2023-05-07T03:29:41.541Z,100004.88
2023-05-07T03:30:13.143Z,100010.19
2023-05-07T03:30:44.654Z,100011.06
2023-05-07T03:31:15.955Z,100004.06
2023-05-07T03:31:47.351Z,100013.03
2023-05-07T03:32:18.698Z,100010.34
2023-05-07T03:32:50.112Z,100005.16
2023-05-07T03:33:21.424Z,100006.84
2023-05-07T03:33:53.312Z,100011.31
2023-05-07T03:34:24.590Z,100005.03
2023-05-07T03:34:55.865Z,100012.03
2023-05-07T03:35:27.219Z,100013.16
2023-05-07T03:35:58.547Z,100006.84
2023-05-07T03:36:29.909Z,100010.50
2023-05-07T03:37:01.224Z,100006.84
2023-05-07T03:37:32.534Z,100011.31
2023-05-07T03:38:03.859Z,100014.94
2023-05-07T03:38:35.162Z,100022.78
2023-05-07T03:39:06.462Z,100014.81
2023-05-07T03:39:37.761Z,100014.81
2023-05-07T03:40:09.376Z,100014.69
2023-05-07T03:40:40.797Z,100013.03
2023-05-07T03:41:12.412Z,100017.47
2023-05-07T03:41:43.678Z,100014.81
2023-05-07T03:42:15.366Z,100019.16
2023-05-07T03:42:46.629Z,100014.94
2023-05-07T03:43:17.919Z,100013.16
2023-05-07T03:43:49.326Z,100016.50
2023-05-07T03:44:20.608Z,100008.53
2023-05-07T03:44:51.898Z,100010.34
2023-05-07T03:45:23.225Z,100009.50
2023-05-07T03:45:54.541Z,100010.34
2023-05-07T03:46:25.844Z,100006.72
2023-05-07T03:46:57.146Z,100009.63
2023-05-07T03:47:28.519Z,100014.22
2023-05-07T03:47:59.929Z,100009.63
2023-05-07T03:48:31.214Z,100008.78
2023-05-07T03:49:02.510Z,100008.78
2023-05-07T03:49:33.827Z,100013.28
2023-05-07T03:50:05.299Z,100009.75
2023-05-07T03:50:36.720Z,100017.72
2023-05-07T03:51:08.016Z,100018.59
2023-05-07T03:51:39.350Z,100015.19
2023-05-07T03:52:10.622Z,100022.22
2023-05-07T03:52:41.946Z,100016.88
2023-05-07T03:53:13.257Z,100025.69
2023-05-07T03:53:44.553Z,100023.91
2023-05-07T03:54:15.904Z,100028.22
2023-05-07T03:54:47.190Z,100024.88
2023-05-07T03:55:18.485Z,100023.91
2023-05-07T03:55:49.877Z,100020.25
2023-05-07T03:56:21.288Z,100029.22
2023-05-07T03:56:52.568Z,100023.91
2023-05-07T03:57:23.880Z,100024.75
2023-05-07T03:57:55.202Z,100025.56
2023-05-07T03:58:26.484Z,100020.25
2023-05-07T03:58:57.752Z,100026.44
2023-05-07T03:59:29.040Z,100024.88
2023-05-07T04:00:00.312Z,100029.22
2023-05-07T04:00:31.607Z,100027.53
2023-05-07T04:01:02.993Z,100029.22
2023-05-07T04:01:34.355Z,100024.88
2023-05-07T04:02:05.920Z,100018.59
2023-05-07T04:02:37.389Z,100024.88
2023-05-07T04:03:08.922Z,100034.66
2023-05-07T04:03:40.475Z,100027.53
2023-05-07T04:04:11.835Z,100037.19
2023-05-07T04:04:43.131Z,100029.34
2023-05-07T04:05:14.887Z,100036.47
2023-05-07T04:05:46.212Z,100036.47
2023-05-07T04:06:17.490Z,100034.53
2023-05-07T04:06:48.762Z,100038.88
2023-05-07T04:07:20.040Z,100036.34
2023-05-07T04:07:51.301Z,100032.84
2023-05-07T04:08:22.592Z,100032.84
2023-05-07T04:08:53.883Z,100037.31
2023-05-07T04:09:25.185Z,100037.31
2023-05-07T04:09:56.461Z,100037.19
2023-05-07T04:10:27.731Z,100038.16
2023-05-07T04:10:59.119Z,100035.50
2023-05-07T04:11:30.435Z,100039.84
2023-05-07T04:12:01.705Z,100032.84
2023-05-07T04:12:33.006Z,100034.53
2023-05-07T04:13:04.311Z,100031.88
2023-05-07T04:13:35.626Z,100034.53
2023-05-07T04:14:07.015Z,100042.50
2023-05-07T04:14:38.279Z,100039.84
2023-05-07T04:15:09.794Z,100039.84
2023-05-07T04:15:41.076Z,100032.84
2023-05-07T04:16:12.377Z,100041.78
2023-05-07T04:16:43.819Z,100036.47
2023-05-07T04:17:15.196Z,100034.53
2023-05-07T04:17:46.579Z,100040.81
2023-05-07T04:18:17.902Z,100039.84
2023-05-07T04:18:49.161Z,100039.84
2023-05-07T04:19:20.429Z,100041.53
2023-05-07T04:19:51.720Z,100039.84
2023-05-07T04:20:23.017Z,100045.19
2023-05-07T04:20:54.317Z,100038.16
2023-05-07T04:21:25.620Z,100046.38
2023-05-07T04:21:56.935Z,100041.91
2023-05-07T04:22:28.263Z,100040.81
2023-05-07T04:22:59.583Z,100047.22
2023-05-07T04:23:30.872Z,100049.03
2023-05-07T04:24:03.833Z,100044.56
2023-05-07T04:24:35.110Z,100042.63
2023-05-07T04:25:06.715Z,100044.31
2023-05-07T04:25:37.965Z,100048.78
2023-05-07T04:26:09.254Z,100046.25
2023-05-07T04:26:40.505Z,100049.75
2023-05-07T04:27:11.843Z,100051.56
2023-05-07T04:27:43.324Z,100051.44
2023-05-07T04:28:14.650Z,100045.31
2023-05-07T04:28:45.912Z,100046.25
2023-05-07T04:29:17.202Z,100047.22
2023-05-07T04:29:48.465Z,100047.09
2023-05-07T04:30:19.700Z,100042.75
2023-05-07T04:30:51.018Z,100041.78
2023-05-07T04:31:22.970Z,100040.94
2023-05-07T04:31:54.501Z,100040.09
2023-05-07T04:32:25.896Z,100035.50
2023-05-07T04:32:57.285Z,100037.44
2023-05-07T04:33:28.703Z,100038.41
2023-05-07T04:33:59.998Z,100039.25
2023-05-07T04:34:31.289Z,100040.94
2023-05-07T04:35:02.616Z,100035.63
2023-05-07T04:35:33.870Z,100043.72
2023-05-07T04:36:05.325Z,100035.75
2023-05-07T04:36:36.623Z,100041.78
2023-05-07T04:37:07.928Z,100042.63
2023-05-07T04:37:39.212Z,100032.13
2023-05-07T04:38:10.525Z,100041.06
2023-05-07T04:38:41.900Z,100041.06
2023-05-07T04:39:13.198Z,100034.78
2023-05-07T04:39:44.484Z,100039.13
2023-05-07T04:40:15.828Z,100046.00
2023-05-07T04:40:47.170Z,100037.19
2023-05-07T04:41:18.491Z,100041.66
2023-05-07T04:41:49.768Z,100042.50
2023-05-07T04:42:21.044Z,100037.44
2023-05-07T04:42:52.340Z,100037.44
2023-05-07T04:43:23.709Z,100043.59
2023-05-07T04:43:54.962Z,100038.28
2023-05-07T04:44:26.311Z,100038.28
2023-05-07T04:44:57.553Z,100038.28
2023-05-07T04:45:28.829Z,100041.78
2023-05-07T04:46:00.214Z,100051.56
2023-05-07T04:46:31.569Z,100040.94
2023-05-07T04:47:02.899Z,100043.47
2023-05-07T04:47:34.161Z,100040.94
2023-05-07T04:48:05.708Z,100042.03
2023-05-07T04:48:37.005Z,100048.91
2023-05-07T04:49:08.303Z,100042.75
2023-05-07T04:49:39.615Z,100044.56
2023-05-07T04:50:11.195Z,100042.75
2023-05-07T04:50:42.652Z,100045.44
2023-05-07T04:51:13.979Z,100040.94
2023-05-07T04:51:45.375Z,100046.25
2023-05-07T04:52:16.630Z,100043.47
2023-05-07T04:52:47.926Z,100044.44
2023-05-07T04:53:19.227Z,100042.75
2023-05-07T04:53:50.546Z,100041.66
2023-05-07T04:54:21.844Z,100047.09
2023-05-07T04:54:53.148Z,100044.19
2023-05-07T04:55:24.542Z,100039.13
2023-05-07T04:55:56.367Z,100044.44
2023-05-07T04:56:28.612Z,100045.31
2023-05-07T04:56:59.896Z,100051.44
2023-05-07T04:57:31.187Z,100051.69
2023-05-07T04:58:02.461Z,100050.75
2023-05-07T04:58:33.812Z,100056.06
2023-05-07T04:59:05.110Z,100049.88
2023-05-07T04:59:36.368Z,100054.22
2023-05-07T05:00:08.387Z,100063.03
2023-05-07T05:00:39.854Z,100050.75
2023-05-07T05:01:11.131Z,100053.28
2023-05-07T05:01:42.508Z,100055.06
2023-05-07T05:02:13.820Z,100055.81
2023-05-07T05:02:45.214Z,100055.81
2023-05-07T05:03:16.665Z,100057.59
2023-05-07T05:03:48.110Z,100055.81
2023-05-07T05:04:19.464Z,100056.91
2023-05-07T05:04:50.774Z,100060.25
2023-05-07T05:05:22.078Z,100055.06
2023-05-07T05:05:53.362Z,100053.41
2023-05-07T05:06:24.627Z,100052.41
2023-05-07T05:06:55.885Z,100061.38
2023-05-07T05:07:27.180Z,100055.19
2023-05-07T05:07:58.473Z,100056.78
2023-05-07T05:08:30.570Z,100055.06
2023-05-07T05:09:01.862Z,100057.72
2023-05-07T05:09:33.153Z,100061.38
2023-05-07T05:10:05.911Z,100051.44
2023-05-07T05:10:37.166Z,100063.03
2023-05-07T05:11:08.462Z,100056.66
2023-05-07T05:11:39.725Z,100056.66
2023-05-07T05:12:11.017Z,100058.47
2023-05-07T05:12:42.292Z,100057.59
2023-05-07T05:13:13.756Z,100050.75
2023-05-07T05:13:45.159Z,100054.94
2023-05-07T05:14:16.432Z,100056.78
2023-05-07T05:14:47.691Z,100056.78
2023-05-07T05:15:19.034Z,100058.47
2023-05-07T05:15:50.631Z,100061.13
2023-05-07T05:16:22.027Z,100055.81
2023-05-07T05:16:53.351Z,100052.16
2023-05-07T05:17:24.638Z,100055.81
2023-05-07T05:17:56.002Z,100058.47
2023-05-07T05:18:27.299Z,100060.25
2023-05-07T05:18:58.554Z,100050.63
2023-05-07T05:19:29.877Z,100054.09
2023-05-07T05:20:01.197Z,100048.78
2023-05-07T05:20:32.549Z,100053.97
2023-05-07T05:21:03.863Z,100052.16
2023-05-07T05:21:35.189Z,100049.50
2023-05-07T05:22:06.477Z,100053.03
2023-05-07T05:22:37.846Z,100051.31
2023-05-07T05:23:09.176Z,100056.53
2023-05-07T05:23:40.449Z,100056.66
2023-05-07T05:24:11.764Z,100050.50
2023-05-07T05:24:43.079Z,100057.47
2023-05-07T05:25:14.432Z,100050.50
2023-05-07T05:25:45.764Z,100058.34
2023-05-07T05:26:17.032Z,100051.31
2023-05-07T05:26:48.289Z,100057.47
2023-05-07T05:27:19.595Z,100063.66
2023-05-07T05:27:50.931Z,100054.22
2023-05-07T05:28:22.239Z,100053.16
2023-05-07T05:28:53.496Z,100057.47
2023-05-07T05:29:24.744Z,100059.19
2023-05-07T05:29:56.182Z,100053.97
2023-05-07T05:30:27.454Z,100060.25
2023-05-07T05:30:58.773Z,100055.94
2023-05-07T05:31:30.147Z,100060.25
2023-05-07T05:32:01.560Z,100060.25
2023-05-07T05:32:34.669Z,100059.44
2023-05-07T05:33:06.180Z,100057.47
2023-05-07T05:33:37.509Z,100054.94
2023-05-07T05:34:08.804Z,100064.75
2023-05-07T05:34:40.125Z,100062.91
2023-05-07T05:35:11.455Z,100062.78
2023-05-07T05:35:42.845Z,100060.13
2023-05-07T05:36:14.283Z,100059.19
2023-05-07T05:36:45.562Z,100066.19
2023-05-07T05:37:16.852Z,100061.84
2023-05-07T05:37:48.122Z,100065.31
2023-05-07T05:38:19.652Z,100065.31
2023-05-07T05:38:50.958Z,100063.66
2023-05-07T05:39:22.266Z,100067.03
2023-05-07T05:39:53.717Z,100072.34
2023-05-07T05:40:25.049Z,100066.19
2023-05-07T05:40:56.822Z,100065.19
2023-05-07T05:41:28.190Z,100061.84
2023-05-07T05:41:59.473Z,100060.88
2023-05-07T05:42:30.750Z,100062.66
2023-05-07T05:43:02.061Z,100066.31
2023-05-07T05:43:33.404Z,100063.53
2023-05-07T05:44:04.688Z,100062.78
2023-05-07T05:44:35.966Z,100067.16
2023-05-07T05:45:07.603Z,100064.75
2023-05-07T05:45:38.892Z,100063.66
2023-05-07T05:46:10.207Z,100069.81
2023-05-07T05:46:41.558Z,100061.97
2023-05-07T05:47:12.947Z,100067.16
2023-05-07T05:47:44.289Z,100066.31
2023-05-07T05:48:15.651Z,100061.84
2023-05-07T05:48:46.958Z,100063.53
2023-05-07T05:49:18.218Z,100068.84
2023-05-07T05:49:49.495Z,100062.53
2023-05-07T05:50:20.785Z,100066.91
2023-05-07T05:50:52.131Z,100063.38
2023-05-07T05:51:23.420Z,100066.03
2023-05-07T05:51:54.719Z,100066.19
2023-05-07T05:52:26.029Z,100062.66
2023-05-07T05:52:57.311Z,100059.88
2023-05-07T05:53:28.615Z,100063.53
2023-05-07T05:53:59.905Z,100062.53
2023-05-07T05:54:31.191Z,100064.38
2023-05-07T05:55:02.481Z,100064.50
2023-05-07T05:55:33.776Z,100070.78
2023-05-07T05:56:05.238Z,100067.16
2023-05-07T05:56:37.206Z,100064.38
2023-05-07T05:57:08.438Z,100067.03
2023-05-07T05:57:39.726Z,100067.03
2023-05-07T05:58:11.017Z,100061.72
2023-05-07T05:58:42.399Z,100065.31